sensor_id;sensor_type;location;lat;lon;timestamp;temperature;humidity
45323;DHT22;31382;50.200;8.674;2022-07-17T00:01:34;15.80;90.00
45323;DHT22;31382;50.200;8.674;2022-07-17T00:06:36;15.70;90.50
45323;DHT22;31382;50.200;8.674;2022-07-17T00:11:38;15.70;90.80
45323;DHT22;31382;50.200;8.674;2022-07-17T00:16:39;15.60;91.50
45323;DHT22;31382;50.200;8.674;2022-07-17T00:21:41;15.40;92.20
45323;DHT22;31382;50.200;8.674;2022-07-17T00:26:44;15.10;92.80
45323;DHT22;31382;50.200;8.674;2022-07-17T00:31:46;15.10;92.90
45323;DHT22;31382;50.200;8.674;2022-07-17T00:36:48;15.10;93.00
45323;DHT22;31382;50.200;8.674;2022-07-17T00:41:50;15.00;93.40
45323;DHT22;31382;50.200;8.674;2022-07-17T00:46:52;14.80;93.70
45323;DHT22;31382;50.200;8.674;2022-07-17T00:51:54;14.80;94.40
45323;DHT22;31382;50.200;8.674;2022-07-17T00:56:56;14.70;94.80
45323;DHT22;31382;50.200;8.674;2022-07-17T01:02:06;14.60;94.80
45323;DHT22;31382;50.200;8.674;2022-07-17T01:07:08;14.50;95.70
45323;DHT22;31382;50.200;8.674;2022-07-17T01:12:10;14.50;95.40
45323;DHT22;31382;50.200;8.674;2022-07-17T01:17:12;14.50;95.90
45323;DHT22;31382;50.200;8.674;2022-07-17T01:22:14;14.50;96.50
45323;DHT22;31382;50.200;8.674;2022-07-17T01:27:16;14.30;97.10
45323;DHT22;31382;50.200;8.674;2022-07-17T01:32:18;14.30;97.50
45323;DHT22;31382;50.200;8.674;2022-07-17T01:37:20;14.10;98.00
45323;DHT22;31382;50.200;8.674;2022-07-17T01:42:23;14.10;99.00
45323;DHT22;31382;50.200;8.674;2022-07-17T01:47:25;14.10;99.50
45323;DHT22;31382;50.200;8.674;2022-07-17T01:52:27;14.00;99.50
45323;DHT22;31382;50.200;8.674;2022-07-17T01:57:29;13.80;99.90
45323;DHT22;31382;50.200;8.674;2022-07-17T02:02:35;13.70;99.90
45323;DHT22;31382;50.200;8.674;2022-07-17T02:07:37;13.70;99.90
45323;DHT22;31382;50.200;8.674;2022-07-17T02:12:44;13.50;99.90
45323;DHT22;31382;50.200;8.674;2022-07-17T02:17:46;13.50;99.90
45323;DHT22;31382;50.200;8.674;2022-07-17T02:22:48;13.40;99.90
45323;DHT22;31382;50.200;8.674;2022-07-17T02:27:50;13.40;99.90
45323;DHT22;31382;50.200;8.674;2022-07-17T02:32:53;13.50;99.90
45323;DHT22;31382;50.200;8.674;2022-07-17T02:37:54;13.40;99.90
45323;DHT22;31382;50.200;8.674;2022-07-17T02:42:56;13.30;99.90
45323;DHT22;31382;50.200;8.674;2022-07-17T02:47:58;13.20;99.90
45323;DHT22;31382;50.200;8.674;2022-07-17T02:53:00;13.20;99.90
45323;DHT22;31382;50.200;8.674;2022-07-17T02:58:03;13.20;99.90
45323;DHT22;31382;50.200;8.674;2022-07-17T03:03:05;13.10;99.90
45323;DHT22;31382;50.200;8.674;2022-07-17T03:08:07;13.10;99.90
45323;DHT22;31382;50.200;8.674;2022-07-17T03:13:09;13.00;99.90
45323;DHT22;31382;50.200;8.674;2022-07-17T03:18:11;12.90;99.90
45323;DHT22;31382;50.200;8.674;2022-07-17T03:23:14;12.70;99.90
45323;DHT22;31382;50.200;8.674;2022-07-17T03:28:16;12.70;99.90
45323;DHT22;31382;50.200;8.674;2022-07-17T03:33:18;12.70;99.90
45323;DHT22;31382;50.200;8.674;2022-07-17T03:38:21;12.70;99.90
45323;DHT22;31382;50.200;8.674;2022-07-17T03:43:25;12.50;99.90
45323;DHT22;31382;50.200;8.674;2022-07-17T03:48:28;12.50;99.90
45323;DHT22;31382;50.200;8.674;2022-07-17T03:53:35;12.50;99.90
45323;DHT22;31382;50.200;8.674;2022-07-17T03:58:37;12.60;99.90
45323;DHT22;31382;50.200;8.674;2022-07-17T04:03:39;12.60;99.90
45323;DHT22;31382;50.200;8.674;2022-07-17T04:08:42;12.60;99.90
45323;DHT22;31382;50.200;8.674;2022-07-17T04:13:48;12.60;99.90
45323;DHT22;31382;50.200;8.674;2022-07-17T04:19:01;12.60;99.90
45323;DHT22;31382;50.200;8.674;2022-07-17T04:24:52;12.50;99.90
45323;DHT22;31382;50.200;8.674;2022-07-17T04:31:17;12.50;99.90
45323;DHT22;31382;50.200;8.674;2022-07-17T04:37:09;12.50;99.90
45323;DHT22;31382;50.200;8.674;2022-07-17T04:42:38;12.50;99.90
45323;DHT22;31382;50.200;8.674;2022-07-17T04:47:44;12.50;99.90
45323;DHT22;31382;50.200;8.674;2022-07-17T05:00:31;12.70;99.90
45323;DHT22;31382;50.200;8.674;2022-07-17T05:06:57;12.70;99.90
45323;DHT22;31382;50.200;8.674;2022-07-17T05:11:59;12.90;99.90
45323;DHT22;31382;50.200;8.674;2022-07-17T05:17:01;13.00;99.90
45323;DHT22;31382;50.200;8.674;2022-07-17T05:22:04;13.10;99.90
45323;DHT22;31382;50.200;8.674;2022-07-17T05:27:06;13.30;99.90
45323;DHT22;31382;50.200;8.674;2022-07-17T05:32:08;13.40;99.90
45323;DHT22;31382;50.200;8.674;2022-07-17T05:37:09;13.60;99.90
45323;DHT22;31382;50.200;8.674;2022-07-17T05:42:11;13.80;99.90
45323;DHT22;31382;50.200;8.674;2022-07-17T05:47:13;14.00;99.90
45323;DHT22;31382;50.200;8.674;2022-07-17T05:52:14;14.20;99.90
45323;DHT22;31382;50.200;8.674;2022-07-17T05:57:16;14.40;99.90
45323;DHT22;31382;50.200;8.674;2022-07-17T06:02:18;14.60;99.90
45323;DHT22;31382;50.200;8.674;2022-07-17T06:07:19;14.90;99.90
45323;DHT22;31382;50.200;8.674;2022-07-17T06:12:21;15.10;99.90
45323;DHT22;31382;50.200;8.674;2022-07-17T06:17:23;15.30;99.90
45323;DHT22;31382;50.200;8.674;2022-07-17T06:22:24;15.50;99.90
45323;DHT22;31382;50.200;8.674;2022-07-17T06:27:26;15.80;99.90
45323;DHT22;31382;50.200;8.674;2022-07-17T06:32:28;16.10;99.90
45323;DHT22;31382;50.200;8.674;2022-07-17T06:37:29;16.40;99.90
45323;DHT22;31382;50.200;8.674;2022-07-17T06:42:31;16.60;99.80
45323;DHT22;31382;50.200;8.674;2022-07-17T06:47:33;16.80;98.70
45323;DHT22;31382;50.200;8.674;2022-07-17T06:52:34;17.00;97.90
45323;DHT22;31382;50.200;8.674;2022-07-17T06:57:37;17.20;97.70
45323;DHT22;31382;50.200;8.674;2022-07-17T07:02:38;17.40;96.40
45323;DHT22;31382;50.200;8.674;2022-07-17T07:07:41;17.60;96.70
45323;DHT22;31382;50.200;8.674;2022-07-17T07:12:43;17.70;96.40
45323;DHT22;31382;50.200;8.674;2022-07-17T07:17:45;17.90;95.40
45323;DHT22;31382;50.200;8.674;2022-07-17T07:22:46;18.20;96.10
45323;DHT22;31382;50.200;8.674;2022-07-17T07:27:48;18.50;95.30
45323;DHT22;31382;50.200;8.674;2022-07-17T07:32:50;18.70;94.70
45323;DHT22;31382;50.200;8.674;2022-07-17T07:37:51;18.90;93.90
45323;DHT22;31382;50.200;8.674;2022-07-17T07:42:53;19.10;94.50
45323;DHT22;31382;50.200;8.674;2022-07-17T07:47:55;19.30;94.00
45323;DHT22;31382;50.200;8.674;2022-07-17T07:52:57;19.50;92.90
45323;DHT22;31382;50.200;8.674;2022-07-17T07:58:16;19.60;91.40
45323;DHT22;31382;50.200;8.674;2022-07-17T08:03:18;19.70;90.80
45323;DHT22;31382;50.200;8.674;2022-07-17T08:08:25;19.90;90.90
45323;DHT22;31382;50.200;8.674;2022-07-17T08:13:28;20.10;90.80
45323;DHT22;31382;50.200;8.674;2022-07-17T08:18:29;20.20;89.50
45323;DHT22;31382;50.200;8.674;2022-07-17T08:23:31;20.40;86.20
45323;DHT22;31382;50.200;8.674;2022-07-17T08:28:33;20.60;87.70
45323;DHT22;31382;50.200;8.674;2022-07-17T08:33:35;20.70;84.90
45323;DHT22;31382;50.200;8.674;2022-07-17T08:38:36;20.80;81.80
45323;DHT22;31382;50.200;8.674;2022-07-17T08:43:38;21.10;81.10
45323;DHT22;31382;50.200;8.674;2022-07-17T08:48:45;21.20;81.30
45323;DHT22;31382;50.200;8.674;2022-07-17T08:53:47;21.30;77.90
45323;DHT22;31382;50.200;8.674;2022-07-17T08:58:49;21.60;78.00
45323;DHT22;31382;50.200;8.674;2022-07-17T09:04:02;21.80;77.00
45323;DHT22;31382;50.200;8.674;2022-07-17T09:09:12;21.90;75.10
45323;DHT22;31382;50.200;8.674;2022-07-17T09:14:15;22.10;75.40
45323;DHT22;31382;50.200;8.674;2022-07-17T09:19:25;22.20;73.40
45323;DHT22;31382;50.200;8.674;2022-07-17T09:24:40;22.40;75.20
45323;DHT22;31382;50.200;8.674;2022-07-17T09:30:03;22.70;72.10
45323;DHT22;31382;50.200;8.674;2022-07-17T09:35:10;22.80;70.60
45323;DHT22;31382;50.200;8.674;2022-07-17T09:40:14;22.80;70.90
45323;DHT22;31382;50.200;8.674;2022-07-17T09:45:36;23.00;71.30
45323;DHT22;31382;50.200;8.674;2022-07-17T09:50:37;23.30;69.20
45323;DHT22;31382;50.200;8.674;2022-07-17T09:55:40;23.40;69.30
45323;DHT22;31382;50.200;8.674;2022-07-17T10:00:48;23.60;68.60
45323;DHT22;31382;50.200;8.674;2022-07-17T10:05:50;23.60;65.90
45323;DHT22;31382;50.200;8.674;2022-07-17T10:10:52;23.80;63.10
45323;DHT22;31382;50.200;8.674;2022-07-17T10:15:54;24.10;66.40
45323;DHT22;31382;50.200;8.674;2022-07-17T10:21:06;24.20;64.10
45323;DHT22;31382;50.200;8.674;2022-07-17T10:26:09;24.10;61.50
45323;DHT22;31382;50.200;8.674;2022-07-17T10:31:25;24.20;62.90
45323;DHT22;31382;50.200;8.674;2022-07-17T10:36:38;24.50;59.80
45323;DHT22;31382;50.200;8.674;2022-07-17T10:41:41;24.60;59.90
45323;DHT22;31382;50.200;8.674;2022-07-17T10:46:43;24.90;59.00
45323;DHT22;31382;50.200;8.674;2022-07-17T10:51:46;25.10;60.40
45323;DHT22;31382;50.200;8.674;2022-07-17T10:56:48;25.30;59.90
45323;DHT22;31382;50.200;8.674;2022-07-17T11:01:56;25.70;59.70
45323;DHT22;31382;50.200;8.674;2022-07-17T11:07:06;25.50;51.60
45323;DHT22;31382;50.200;8.674;2022-07-17T11:12:08;26.00;55.40
45323;DHT22;31382;50.200;8.674;2022-07-17T11:17:09;26.30;55.30
45323;DHT22;31382;50.200;8.674;2022-07-17T11:22:22;26.50;56.90
45323;DHT22;31382;50.200;8.674;2022-07-17T11:27:27;26.70;57.60
45323;DHT22;31382;50.200;8.674;2022-07-17T11:32:38;26.90;54.60
45323;DHT22;31382;50.200;8.674;2022-07-17T11:37:40;26.80;53.30
45323;DHT22;31382;50.200;8.674;2022-07-17T11:42:42;27.10;53.10
45323;DHT22;31382;50.200;8.674;2022-07-17T11:47:44;27.20;57.20
45323;DHT22;31382;50.200;8.674;2022-07-17T11:52:50;27.30;55.30
45323;DHT22;31382;50.200;8.674;2022-07-17T11:57:52;27.50;50.20
45323;DHT22;31382;50.200;8.674;2022-07-17T12:03:04;27.50;49.20
45323;DHT22;31382;50.200;8.674;2022-07-17T12:08:09;27.70;52.40
45323;DHT22;31382;50.200;8.674;2022-07-17T12:13:19;27.90;51.30
45323;DHT22;31382;50.200;8.674;2022-07-17T12:18:29;27.80;51.50
45323;DHT22;31382;50.200;8.674;2022-07-17T12:23:36;27.80;54.50
45323;DHT22;31382;50.200;8.674;2022-07-17T12:28:39;27.90;51.30
45323;DHT22;31382;50.200;8.674;2022-07-17T12:33:42;28.10;51.10
45323;DHT22;31382;50.200;8.674;2022-07-17T12:38:44;28.10;52.10
45323;DHT22;31382;50.200;8.674;2022-07-17T12:43:46;28.20;51.50
45323;DHT22;31382;50.200;8.674;2022-07-17T12:48:47;28.10;49.40
45323;DHT22;31382;50.200;8.674;2022-07-17T12:53:49;28.20;49.00
45323;DHT22;31382;50.200;8.674;2022-07-17T12:58:51;28.20;49.50
45323;DHT22;31382;50.200;8.674;2022-07-17T13:04:00;28.20;49.40
45323;DHT22;31382;50.200;8.674;2022-07-17T13:09:02;28.30;48.00
45323;DHT22;31382;50.200;8.674;2022-07-17T13:14:04;28.30;45.20
45323;DHT22;31382;50.200;8.674;2022-07-17T13:19:08;28.40;48.60
45323;DHT22;31382;50.200;8.674;2022-07-17T13:24:10;28.50;47.70
45323;DHT22;31382;50.200;8.674;2022-07-17T13:29:13;28.50;48.10
45323;DHT22;31382;50.200;8.674;2022-07-17T13:34:15;28.60;47.00
45323;DHT22;31382;50.200;8.674;2022-07-17T13:39:17;28.70;46.20
45323;DHT22;31382;50.200;8.674;2022-07-17T13:44:19;28.90;46.20
45323;DHT22;31382;50.200;8.674;2022-07-17T13:49:21;29.10;46.00
45323;DHT22;31382;50.200;8.674;2022-07-17T13:54:24;29.10;44.40
45323;DHT22;31382;50.200;8.674;2022-07-17T13:59:26;29.40;44.60
45323;DHT22;31382;50.200;8.674;2022-07-17T14:04:28;29.60;45.40
45323;DHT22;31382;50.200;8.674;2022-07-17T14:09:30;29.80;45.20
45323;DHT22;31382;50.200;8.674;2022-07-17T14:14:32;30.00;44.50
45323;DHT22;31382;50.200;8.674;2022-07-17T14:19:35;30.30;45.60
45323;DHT22;31382;50.200;8.674;2022-07-17T14:24:43;30.40;45.10
45323;DHT22;31382;50.200;8.674;2022-07-17T14:29:45;30.80;44.00
45323;DHT22;31382;50.200;8.674;2022-07-17T14:34:47;31.10;42.10
45323;DHT22;31382;50.200;8.674;2022-07-17T14:39:49;31.40;43.40
45323;DHT22;31382;50.200;8.674;2022-07-17T14:44:51;32.00;43.30
45323;DHT22;31382;50.200;8.674;2022-07-17T14:49:52;32.60;43.30
45323;DHT22;31382;50.200;8.674;2022-07-17T14:54:54;33.10;42.40
45323;DHT22;31382;50.200;8.674;2022-07-17T14:59:55;33.60;41.40
45323;DHT22;31382;50.200;8.674;2022-07-17T15:04:57;33.80;41.70
45323;DHT22;31382;50.200;8.674;2022-07-17T15:09:59;33.90;41.00
45323;DHT22;31382;50.200;8.674;2022-07-17T15:15:00;33.80;41.70
45323;DHT22;31382;50.200;8.674;2022-07-17T15:20:02;33.70;40.70
45323;DHT22;31382;50.200;8.674;2022-07-17T15:25:05;33.70;41.50
45323;DHT22;31382;50.200;8.674;2022-07-17T15:30:07;33.40;41.40
45323;DHT22;31382;50.200;8.674;2022-07-17T15:35:09;33.40;40.70
45323;DHT22;31382;50.200;8.674;2022-07-17T15:40:11;33.20;41.80
45323;DHT22;31382;50.200;8.674;2022-07-17T15:45:13;33.30;40.60
45323;DHT22;31382;50.200;8.674;2022-07-17T15:50:15;33.40;40.90
45323;DHT22;31382;50.200;8.674;2022-07-17T15:55:16;33.70;40.80
45323;DHT22;31382;50.200;8.674;2022-07-17T16:00:20;33.90;40.30
45323;DHT22;31382;50.200;8.674;2022-07-17T16:05:22;34.00;38.00
45323;DHT22;31382;50.200;8.674;2022-07-17T16:10:24;34.00;38.20
45323;DHT22;31382;50.200;8.674;2022-07-17T16:15:26;34.20;38.80
45323;DHT22;31382;50.200;8.674;2022-07-17T16:20:28;34.20;38.50
45323;DHT22;31382;50.200;8.674;2022-07-17T16:25:29;34.30;38.30
45323;DHT22;31382;50.200;8.674;2022-07-17T16:30:32;34.10;38.90
45323;DHT22;31382;50.200;8.674;2022-07-17T16:35:34;34.10;38.70
45323;DHT22;31382;50.200;8.674;2022-07-17T16:40:36;34.00;38.60
45323;DHT22;31382;50.200;8.674;2022-07-17T16:45:38;34.00;38.50
45323;DHT22;31382;50.200;8.674;2022-07-17T16:50:41;33.70;38.60
45323;DHT22;31382;50.200;8.674;2022-07-17T16:55:45;33.70;38.80
45323;DHT22;31382;50.200;8.674;2022-07-17T17:00:47;33.50;37.20
45323;DHT22;31382;50.200;8.674;2022-07-17T17:05:49;33.10;38.00
45323;DHT22;31382;50.200;8.674;2022-07-17T17:10:51;33.10;38.70
45323;DHT22;31382;50.200;8.674;2022-07-17T17:15:52;33.10;38.10
45323;DHT22;31382;50.200;8.674;2022-07-17T17:20:54;33.00;39.80
45323;DHT22;31382;50.200;8.674;2022-07-17T17:25:56;32.90;39.50
45323;DHT22;31382;50.200;8.674;2022-07-17T17:30:59;32.90;39.20
45323;DHT22;31382;50.200;8.674;2022-07-17T17:36:02;32.90;40.40
45323;DHT22;31382;50.200;8.674;2022-07-17T17:41:03;32.60;39.80
45323;DHT22;31382;50.200;8.674;2022-07-17T17:46:05;32.40;39.00
45323;DHT22;31382;50.200;8.674;2022-07-17T17:51:07;32.20;39.40
45323;DHT22;31382;50.200;8.674;2022-07-17T17:56:10;32.00;39.70
45323;DHT22;31382;50.200;8.674;2022-07-17T18:01:12;31.90;39.90
45323;DHT22;31382;50.200;8.674;2022-07-17T18:06:14;31.90;39.40
45323;DHT22;31382;50.200;8.674;2022-07-17T18:11:16;31.70;40.10
45323;DHT22;31382;50.200;8.674;2022-07-17T18:16:17;31.40;41.30
45323;DHT22;31382;50.200;8.674;2022-07-17T18:21:21;30.90;42.20
45323;DHT22;31382;50.200;8.674;2022-07-17T18:26:23;30.40;42.60
45323;DHT22;31382;50.200;8.674;2022-07-17T18:31:24;30.00;43.30
45323;DHT22;31382;50.200;8.674;2022-07-17T18:36:26;29.40;44.40
45323;DHT22;31382;50.200;8.674;2022-07-17T18:41:28;29.00;45.10
45323;DHT22;31382;50.200;8.674;2022-07-17T18:46:30;28.50;45.60
45323;DHT22;31382;50.200;8.674;2022-07-17T18:51:33;28.20;46.30
45323;DHT22;31382;50.200;8.674;2022-07-17T18:56:34;27.80;46.90
45323;DHT22;31382;50.200;8.674;2022-07-17T19:01:36;27.50;46.80
45323;DHT22;31382;50.200;8.674;2022-07-17T19:06:39;27.20;47.40
45323;DHT22;31382;50.200;8.674;2022-07-17T19:11:41;26.90;47.70
45323;DHT22;31382;50.200;8.674;2022-07-17T19:16:43;26.60;49.30
45323;DHT22;31382;50.200;8.674;2022-07-17T19:21:45;26.30;50.30
45323;DHT22;31382;50.200;8.674;2022-07-17T19:26:47;26.00;51.60
45323;DHT22;31382;50.200;8.674;2022-07-17T19:31:49;25.70;52.80
45323;DHT22;31382;50.200;8.674;2022-07-17T19:36:50;25.40;53.60
45323;DHT22;31382;50.200;8.674;2022-07-17T19:41:52;25.20;53.90
45323;DHT22;31382;50.200;8.674;2022-07-17T19:46:54;24.90;54.90
45323;DHT22;31382;50.200;8.674;2022-07-17T19:51:56;24.70;56.10
45323;DHT22;31382;50.200;8.674;2022-07-17T19:56:57;24.40;57.20
45323;DHT22;31382;50.200;8.674;2022-07-17T20:01:59;24.10;57.90
45323;DHT22;31382;50.200;8.674;2022-07-17T20:07:01;23.90;58.70
45323;DHT22;31382;50.200;8.674;2022-07-17T20:12:02;23.70;59.10
45323;DHT22;31382;50.200;8.674;2022-07-17T20:17:04;23.40;58.50
45323;DHT22;31382;50.200;8.674;2022-07-17T20:22:06;23.20;58.60
45323;DHT22;31382;50.200;8.674;2022-07-17T20:27:08;23.00;58.90
45323;DHT22;31382;50.200;8.674;2022-07-17T20:32:10;22.80;59.70
45323;DHT22;31382;50.200;8.674;2022-07-17T20:37:11;22.70;60.70
45323;DHT22;31382;50.200;8.674;2022-07-17T20:42:13;22.60;61.50
45323;DHT22;31382;50.200;8.674;2022-07-17T20:47:15;22.40;62.70
45323;DHT22;31382;50.200;8.674;2022-07-17T20:52:16;22.20;63.50
45323;DHT22;31382;50.200;8.674;2022-07-17T20:57:23;22.10;64.20
45323;DHT22;31382;50.200;8.674;2022-07-17T21:02:25;21.80;64.70
45323;DHT22;31382;50.200;8.674;2022-07-17T21:07:27;21.70;65.60
45323;DHT22;31382;50.200;8.674;2022-07-17T21:12:28;21.50;65.70
45323;DHT22;31382;50.200;8.674;2022-07-17T21:17:30;21.40;66.50
45323;DHT22;31382;50.200;8.674;2022-07-17T21:22:32;21.20;66.50
45323;DHT22;31382;50.200;8.674;2022-07-17T21:27:40;21.10;66.90
45323;DHT22;31382;50.200;8.674;2022-07-17T21:32:42;20.90;67.30
45323;DHT22;31382;50.200;8.674;2022-07-17T21:37:43;20.70;67.80
45323;DHT22;31382;50.200;8.674;2022-07-17T21:42:45;20.60;68.20
45323;DHT22;31382;50.200;8.674;2022-07-17T21:47:47;20.60;69.30
45323;DHT22;31382;50.200;8.674;2022-07-17T21:52:48;20.50;70.40
45323;DHT22;31382;50.200;8.674;2022-07-17T21:57:50;20.30;71.90
45323;DHT22;31382;50.200;8.674;2022-07-17T22:02:53;20.20;71.30
45323;DHT22;31382;50.200;8.674;2022-07-17T22:07:55;20.10;73.00
45323;DHT22;31382;50.200;8.674;2022-07-17T22:12:58;19.90;73.10
45323;DHT22;31382;50.200;8.674;2022-07-17T22:18:00;19.80;74.00
45323;DHT22;31382;50.200;8.674;2022-07-17T22:23:02;19.60;75.40
45323;DHT22;31382;50.200;8.674;2022-07-17T22:28:04;19.50;76.40
45323;DHT22;31382;50.200;8.674;2022-07-17T22:33:07;19.30;77.30
45323;DHT22;31382;50.200;8.674;2022-07-17T22:38:10;19.30;76.90
45323;DHT22;31382;50.200;8.674;2022-07-17T22:43:12;19.10;77.40
45323;DHT22;31382;50.200;8.674;2022-07-17T22:48:13;19.00;76.90
45323;DHT22;31382;50.200;8.674;2022-07-17T22:53:15;18.90;77.30
45323;DHT22;31382;50.200;8.674;2022-07-17T22:58:17;18.70;77.60
45323;DHT22;31382;50.200;8.674;2022-07-17T23:03:20;18.60;78.80
45323;DHT22;31382;50.200;8.674;2022-07-17T23:08:22;18.60;78.70
45323;DHT22;31382;50.200;8.674;2022-07-17T23:13:24;18.40;79.10
45323;DHT22;31382;50.200;8.674;2022-07-17T23:18:26;17.90;79.30
45323;DHT22;31382;50.200;8.674;2022-07-17T23:23:27;18.30;79.80
45323;DHT22;31382;50.200;8.674;2022-07-17T23:28:29;18.20;80.80
45323;DHT22;31382;50.200;8.674;2022-07-17T23:33:31;18.10;81.50
45323;DHT22;31382;50.200;8.674;2022-07-17T23:38:32;18.00;81.80
45323;DHT22;31382;50.200;8.674;2022-07-17T23:43:34;17.90;82.20
45323;DHT22;31382;50.200;8.674;2022-07-17T23:48:36;17.70;82.90
45323;DHT22;31382;50.200;8.674;2022-07-17T23:53:38;17.60;84.40
45323;DHT22;31382;50.200;8.674;2022-07-17T23:58:40;17.60;83.30
